To NAV CANADA Home Page Login to a new session Search on AWWS site Feedback and Comments Disclaimer Vers la page française équivalente Tips FAQ What's new on the site To the Forecasts and Observations / NOTAM section To "File a Flight Plan" website Publications and other links Update of the User's profile FIC Telephone Numbers My Weather Data Folder Route Weather Data Regional Weather Data Local Weather Data To the Forecasts and Observations / NOTAM section
Request Generated 02/24/2017 at 03:37:59 UTC . Weather information available at that time is displayed.

METAR/TAF

EDMONTON INTL/AB    

METAR CYEG 240300Z 17004KT 15SM SCT070 BKN092 M07/M10 A3001 RMK
AC3AC4 VIRGA SLP209=
METAR CYEG 240200Z 17005KT 15SM SCT082 BKN095 BKN260 M07/M10 A3001
RMK AC3AC2CI1 CI TR VIRGA N SLP210=
METAR CYEG 240100Z 17008KT 15SM FEW040 SCT100 SCT160 BKN260 M05/M09
A3000 RMK SC1AC3AC1CI1 SC TR SLP203=

TAF CYEG 240238Z 2403/2424 17005KT P6SM SCT080 BKN260
FM240500 12005KT P6SM BKN030 OVC080 TEMPO 2405/2411 4SM -SHSN BR
OVC020
FM241100 14005KT 2SM -SHSN VV015
BECMG 2412/2414 32008KT
FM241600 36015KT 5SM -SHSN BKN020
FM242000 34012KT P6SM BKN025
FM242300 34010KT P6SM FEW040 BKN140
RMK NXT FCST BY 240600Z=
Your time UTC time
Weather data provided by Environment Canada and NAV CANADA